createdAt,value
2022-09-20T00:01:33.521Z,7.80
2022-09-20T00:04:05.826Z,7.90
2022-09-20T00:06:34.302Z,7.13
2022-09-20T00:09:03.249Z,6.32
2022-09-20T00:11:33.599Z,6.03
2022-09-20T00:14:03.027Z,5.53
2022-09-20T00:16:35.161Z,6.75
2022-09-20T00:19:04.387Z,5.80
2022-09-20T00:21:34.328Z,6.30
2022-09-20T00:24:02.578Z,8.32
2022-09-20T00:26:30.262Z,5.45
2022-09-20T00:28:58.443Z,5.88
2022-09-20T00:31:33.393Z,6.53
2022-09-20T00:34:19.481Z,5.65
2022-09-20T00:36:47.300Z,7.00
2022-09-20T00:39:15.965Z,6.28
2022-09-20T00:41:44.231Z,6.63
2022-09-20T00:44:55.816Z,6.30
2022-09-20T00:47:46.487Z,5.78
2022-09-20T00:50:46.234Z,5.63
2022-09-20T00:53:42.308Z,7.07
2022-09-20T00:56:21.914Z,8.23
2022-09-20T00:59:11.839Z,7.78
2022-09-20T01:01:43.447Z,7.03
2022-09-20T01:04:14.643Z,9.90
2022-09-20T01:06:44.874Z,10.23
2022-09-20T01:09:12.432Z,8.30
2022-09-20T01:11:41.160Z,8.68
2022-09-20T01:14:09.287Z,7.85
2022-09-20T01:16:37.931Z,7.70
2022-09-20T01:19:17.719Z,6.40
2022-09-20T01:21:46.426Z,7.18
2022-09-20T01:24:35.469Z,7.15
2022-09-20T01:27:35.207Z,8.40
2022-09-20T01:30:07.138Z,8.40
2022-09-20T01:33:03.049Z,6.75
2022-09-20T01:35:33.761Z,7.40
2022-09-20T01:38:38.743Z,7.00
2022-09-20T01:41:11.277Z,7.82
2022-09-20T01:43:53.352Z,6.97
2022-09-20T01:46:32.564Z,5.80
2022-09-20T01:49:36.584Z,7.65
2022-09-20T01:52:28.125Z,7.90
2022-09-20T01:55:14.027Z,8.18
2022-09-20T01:57:50.528Z,8.70
2022-09-20T02:00:20.218Z,9.00
2022-09-20T02:03:26.029Z,8.32
2022-09-20T02:06:13.862Z,6.72
2022-09-20T02:09:14.960Z,6.85
2022-09-20T02:12:20.118Z,6.07
2022-09-20T02:14:58.073Z,6.10
2022-09-20T02:17:48.361Z,5.50
2022-09-20T02:20:57.187Z,8.25
2022-09-20T02:23:58.398Z,6.00
2022-09-20T02:26:51.305Z,6.55
2022-09-20T02:29:27.683Z,6.55
2022-09-20T02:32:46.073Z,6.97
2022-09-20T02:35:45.771Z,7.10
2022-09-20T02:38:31.352Z,6.57
2022-09-20T02:41:19.983Z,7.68
2022-09-20T02:44:29.105Z,7.57
2022-09-20T02:47:17.904Z,6.82
2022-09-20T02:49:56.356Z,7.63
2022-09-20T02:52:28.434Z,6.47
2022-09-20T02:55:06.273Z,7.47
2022-09-20T02:57:53.786Z,10.85
2022-09-20T03:00:32.897Z,8.43
2022-09-20T03:03:22.150Z,9.35
2022-09-20T03:06:09.165Z,6.47
2022-09-20T03:08:56.542Z,6.28
2022-09-20T03:11:49.666Z,8.40
2022-09-20T03:14:27.749Z,7.82
2022-09-20T03:17:18.877Z,8.60
2022-09-20T03:19:56.982Z,7.53
2022-09-20T03:23:01.986Z,137.38
2022-09-20T03:25:53.111Z,9.40
2022-09-20T03:28:35.933Z,8.30
2022-09-20T03:31:09.354Z,8.83
2022-09-20T03:33:49.112Z,9.90
2022-09-20T03:36:35.003Z,7.82
2022-09-20T03:39:26.441Z,7.55
2022-09-20T03:42:16.742Z,7.32
2022-09-20T03:44:55.955Z,5.80
2022-09-20T03:47:45.014Z,5.78
2022-09-20T03:50:12.506Z,6.63
2022-09-20T03:52:57.707Z,7.85
2022-09-20T03:55:43.276Z,8.88
2022-09-20T03:58:36.778Z,7.28
2022-09-20T04:01:41.476Z,7.45
2022-09-20T04:04:27.513Z,6.75
2022-09-20T04:07:13.641Z,8.88
2022-09-20T04:09:47.773Z,7.60
2022-09-20T04:12:27.306Z,8.40
2022-09-20T04:15:03.758Z,9.23
2022-09-20T04:17:49.796Z,8.07
2022-09-20T04:20:24.153Z,7.60
2022-09-20T04:22:55.427Z,9.57
2022-09-20T04:25:43.748Z,19.88
2022-09-20T04:28:27.277Z,19.60
2022-09-20T04:31:00.247Z,21.55
2022-09-20T04:33:34.157Z,17.35
2022-09-20T04:36:31.726Z,19.27
2022-09-20T04:39:15.124Z,20.35
2022-09-20T04:42:04.195Z,15.93
2022-09-20T04:44:50.018Z,21.42
2022-09-20T04:47:37.678Z,19.13
2022-09-20T04:50:32.428Z,18.13
2022-09-20T04:53:17.406Z,20.23
2022-09-20T04:55:54.052Z,20.42
2022-09-20T04:58:36.376Z,17.50
2022-09-20T05:01:19.709Z,18.70
2022-09-20T05:04:05.691Z,19.85
2022-09-20T05:06:35.880Z,15.90
2022-09-20T05:09:17.916Z,19.15
2022-09-20T05:12:19.102Z,22.85
2022-09-20T05:15:23.428Z,20.75
2022-09-20T05:20:56.941Z,19.55
2022-09-20T05:23:34.859Z,19.83
2022-09-20T05:26:25.502Z,21.15
2022-09-20T05:29:05.231Z,20.10
2022-09-20T05:31:51.089Z,20.60
2022-09-20T05:34:42.626Z,22.48
2022-09-20T05:37:32.871Z,17.27
2022-09-20T05:40:22.256Z,10.98
2022-09-20T05:43:02.326Z,19.13
2022-09-20T05:46:17.428Z,18.05
2022-09-20T05:48:59.444Z,18.42
2022-09-20T05:51:48.284Z,20.20
2022-09-20T05:54:29.826Z,19.02
2022-09-20T05:56:57.234Z,17.33
2022-09-20T05:59:24.805Z,17.17
2022-09-20T06:02:00.792Z,14.18
2022-09-20T06:04:50.662Z,11.98
2022-09-20T06:07:24.907Z,14.32
2022-09-20T06:10:03.795Z,12.73
2022-09-20T06:13:13.288Z,11.88
2022-09-20T06:16:06.497Z,15.88
2022-09-20T06:19:01.963Z,9.65
2022-09-20T06:21:52.873Z,21.65
2022-09-20T06:24:35.898Z,16.70
2022-09-20T06:27:09.015Z,13.85
2022-09-20T06:29:42.091Z,14.40
2022-09-20T06:32:09.689Z,15.43
2022-09-20T06:34:37.337Z,9.93
2022-09-20T06:37:47.151Z,9.43
2022-09-20T06:41:05.258Z,9.45
2022-09-20T06:43:32.820Z,9.88
2022-09-20T06:46:00.154Z,13.35
2022-09-20T06:48:30.019Z,14.48
2022-09-20T06:50:57.396Z,11.98
2022-09-20T06:53:32.654Z,13.15
2022-09-20T06:56:01.278Z,13.50
2022-09-20T06:58:28.505Z,11.15
2022-09-20T07:00:56.061Z,18.42
2022-09-20T07:03:23.383Z,13.82
2022-09-20T07:05:50.683Z,13.73
2022-09-20T07:08:18.031Z,12.55
2022-09-20T07:10:45.550Z,13.68
2022-09-20T07:13:15.781Z,13.35
2022-09-20T07:15:43.137Z,13.02
2022-09-20T07:18:10.488Z,11.50
2022-09-20T07:20:38.160Z,14.63
2022-09-20T07:23:05.580Z,13.88
2022-09-20T07:25:33.011Z,15.07
2022-09-20T07:28:00.234Z,13.68
2022-09-20T07:30:27.634Z,10.93
2022-09-20T07:32:54.910Z,11.57
2022-09-20T07:35:22.546Z,10.30
2022-09-20T07:37:56.374Z,8.88
2022-09-20T07:40:24.049Z,10.73
2022-09-20T07:42:56.008Z,13.07
2022-09-20T07:45:24.196Z,10.30
2022-09-20T07:47:52.323Z,12.75
2022-09-20T07:50:19.801Z,12.10
2022-09-20T07:52:47.143Z,11.80
2022-09-20T07:55:14.468Z,9.35
2022-09-20T07:57:41.767Z,13.13
2022-09-20T08:00:10.471Z,15.93
2022-09-20T08:02:40.972Z,343.25
2022-09-20T08:05:08.802Z,260.15
2022-09-20T08:07:36.347Z,264.23
2022-09-20T08:10:05.071Z,374.60
2022-09-20T08:15:20.951Z,10.48
2022-09-20T08:17:48.580Z,11.20
2022-09-20T08:20:16.040Z,55.35
2022-09-20T08:22:43.605Z,394.70
2022-09-20T08:25:11.159Z,14.57
2022-09-20T08:27:38.613Z,168.38
2022-09-20T08:30:07.088Z,435.77
2022-09-20T08:32:34.396Z,491.85
2022-09-20T08:35:01.849Z,470.55
2022-09-20T08:37:29.170Z,424.90
2022-09-20T08:39:57.977Z,415.23
2022-09-20T08:42:39.063Z,423.75
2022-09-20T08:45:33.831Z,12.40
2022-09-20T08:48:05.847Z,17.70
2022-09-20T08:50:34.777Z,279.27
2022-09-20T08:53:05.905Z,438.95
2022-09-20T08:55:37.701Z,282.67
2022-09-20T08:58:08.732Z,396.40
2022-09-20T09:00:37.976Z,160.48
2022-09-20T09:03:17.371Z,7.55
2022-09-20T09:05:49.196Z,5.30
2022-09-20T09:08:24.331Z,6.60
2022-09-20T09:11:02.494Z,368.35
2022-09-20T09:13:33.036Z,259.67
2022-09-20T09:16:10.118Z,12.00
2022-09-20T09:18:41.244Z,7.75
2022-09-20T09:21:10.637Z,9.15
2022-09-20T09:23:45.559Z,10.30
2022-09-20T09:26:19.234Z,5.38
2022-09-20T09:28:46.987Z,10.55
2022-09-20T09:31:29.098Z,12.32
2022-09-20T09:33:56.533Z,8.65
2022-09-20T09:36:26.316Z,7.55
2022-09-20T09:39:30.919Z,318.33
2022-09-20T09:42:01.334Z,240.55
2022-09-20T09:44:33.418Z,20.25
2022-09-20T09:47:01.510Z,13.10
2022-09-20T09:49:36.502Z,17.17
2022-09-20T09:52:24.886Z,11.43
2022-09-20T09:55:02.667Z,17.08
2022-09-20T09:57:42.998Z,351.75
2022-09-20T10:00:21.956Z,169.13
2022-09-20T10:03:22.432Z,248.93
2022-09-20T10:06:18.841Z,12.88
2022-09-20T10:09:09.377Z,12.55
2022-09-20T10:12:05.282Z,18.45
2022-09-20T10:14:41.974Z,17.17
2022-09-20T10:17:23.821Z,17.17
2022-09-20T10:20:15.567Z,8.50
2022-09-20T10:26:35.770Z,15.43
2022-09-20T10:29:54.953Z,14.57
2022-09-20T10:32:33.036Z,14.52
2022-09-20T10:35:25.306Z,39.88
2022-09-20T10:37:55.566Z,85.78
2022-09-20T10:40:57.890Z,4.45
2022-09-20T10:43:55.380Z,742.53
2022-09-20T10:46:38.350Z,627.15
2022-09-20T10:49:29.246Z,659.22
2022-09-20T10:52:01.041Z,544.63
2022-09-20T10:55:15.292Z,554.80
2022-09-20T10:57:46.593Z,547.65
2022-09-20T11:00:32.596Z,522.97
2022-09-20T11:03:12.260Z,515.88
2022-09-20T11:06:00.443Z,471.98
2022-09-20T11:08:34.162Z,453.95
2022-09-20T11:11:19.895Z,472.50
2022-09-20T11:14:02.962Z,473.88
2022-09-20T11:16:44.818Z,457.55
2022-09-20T11:19:34.113Z,441.35
2022-09-20T11:22:19.047Z,428.83
2022-09-20T11:24:58.099Z,488.90
2022-09-20T11:27:37.938Z,495.65
2022-09-20T11:30:19.173Z,526.67
2022-09-20T11:33:18.865Z,501.90
2022-09-20T11:36:05.804Z,558.00
2022-09-20T11:38:38.806Z,591.40
2022-09-20T11:41:11.983Z,601.70
2022-09-20T11:43:45.514Z,261.33
2022-09-20T11:48:54.323Z,3.97
2022-09-20T11:52:09.480Z,3.78
2022-09-20T11:54:45.404Z,3.85
2022-09-20T11:57:17.110Z,4.95
2022-09-20T11:59:53.459Z,2.47
2022-09-20T12:02:24.263Z,4.20
2022-09-20T12:04:53.586Z,2.00
2022-09-20T12:07:32.801Z,2.45
2022-09-20T12:10:20.549Z,3.30
2022-09-20T12:12:55.144Z,3.35
2022-09-20T12:15:39.554Z,3.85
2022-09-20T12:18:15.888Z,4.93
2022-09-20T12:20:43.082Z,5.30
2022-09-20T12:23:42.706Z,1.90
2022-09-20T12:26:37.474Z,2.05
2022-09-20T12:29:32.790Z,2.33
2022-09-20T12:32:31.874Z,4.03
2022-09-20T12:34:59.321Z,2.85
2022-09-20T12:37:27.138Z,1.63
2022-09-20T12:39:56.017Z,567.33
2022-09-20T12:42:32.203Z,597.13
2022-09-20T12:45:16.011Z,607.50
2022-09-20T12:47:56.101Z,612.08
2022-09-20T12:50:42.506Z,610.95
2022-09-20T12:53:16.876Z,616.75
2022-09-20T12:56:02.251Z,614.22
2022-09-20T12:58:39.965Z,617.25
2022-09-20T13:01:10.671Z,608.80
2022-09-20T13:03:44.180Z,608.72
2022-09-20T13:06:15.083Z,615.88
2022-09-20T13:08:51.567Z,609.25
2022-09-20T13:11:36.646Z,604.15
2022-09-20T13:14:12.938Z,606.40
2022-09-20T13:17:01.931Z,601.70
2022-09-20T13:19:46.804Z,605.10
2022-09-20T13:22:23.462Z,606.80
2022-09-20T13:24:55.346Z,593.88
2022-09-20T13:27:24.702Z,746.88
2022-09-20T13:29:53.507Z,748.47
2022-09-20T13:32:28.842Z,737.55
2022-09-20T13:35:19.020Z,728.90
2022-09-20T13:37:49.544Z,716.38
2022-09-20T13:40:21.622Z,740.53
2022-09-20T13:42:52.390Z,719.80
2022-09-20T13:45:22.245Z,729.30
2022-09-20T13:47:58.226Z,718.67
2022-09-20T13:50:33.126Z,719.42
2022-09-20T13:53:27.913Z,726.67
2022-09-20T13:56:01.745Z,725.17
2022-09-20T13:58:37.406Z,719.92
2022-09-20T14:01:09.480Z,714.25
2022-09-20T14:03:37.428Z,710.17
2022-09-20T14:06:13.786Z,715.80
2022-09-20T14:08:47.082Z,711.20
2022-09-20T14:11:21.303Z,705.88
2022-09-20T14:13:51.976Z,719.28
2022-09-20T14:16:22.637Z,702.88
2022-09-20T14:18:50.690Z,730.35
2022-09-20T14:21:23.812Z,735.10
2022-09-20T14:23:58.410Z,728.28
2022-09-20T14:26:40.041Z,716.83
2022-09-20T14:29:32.651Z,709.00
2022-09-20T14:32:07.363Z,686.92
2022-09-20T14:34:40.236Z,685.08
2022-09-20T14:37:14.374Z,691.78
2022-09-20T14:39:51.166Z,704.17
2022-09-20T14:42:23.290Z,699.83
2022-09-20T14:44:52.476Z,701.70
2022-09-20T14:47:38.608Z,705.78
2022-09-20T14:50:33.943Z,698.90
2022-09-20T14:53:09.004Z,704.90
2022-09-20T14:55:37.975Z,727.85
2022-09-20T14:58:13.398Z,720.33
2022-09-20T15:01:05.307Z,730.58
2022-09-20T15:03:34.453Z,723.45
2022-09-20T15:06:01.815Z,726.05
2022-09-20T15:08:29.221Z,734.95
2022-09-20T15:10:56.496Z,718.20
2022-09-20T15:13:23.890Z,747.67
2022-09-20T15:15:53.462Z,721.63
2022-09-20T15:18:30.328Z,712.15
2022-09-20T15:20:57.712Z,721.25
2022-09-20T15:23:25.357Z,712.05
2022-09-20T15:25:54.509Z,716.03
2022-09-20T15:28:22.188Z,708.58
2022-09-20T15:30:51.566Z,689.33
2022-09-20T15:33:20.750Z,676.92
2022-09-20T15:35:49.034Z,761.70
2022-09-20T15:38:19.473Z,576.88
2022-09-20T15:40:49.658Z,544.70
2022-09-20T15:43:21.759Z,555.17
2022-09-20T15:45:51.720Z,548.83
2022-09-20T15:48:21.556Z,537.20
2022-09-20T15:51:09.179Z,546.17
2022-09-20T15:53:45.268Z,551.00
2022-09-20T15:56:19.491Z,540.97
2022-09-20T15:58:51.758Z,533.95
2022-09-20T16:01:20.092Z,523.08
2022-09-20T16:03:47.640Z,533.40
2022-09-20T16:06:15.109Z,525.28
2022-09-20T16:08:43.646Z,517.20
2022-09-20T16:11:13.862Z,523.55
2022-09-20T16:13:42.026Z,526.55
2022-09-20T16:16:13.249Z,528.67
2022-09-20T16:18:59.246Z,525.13
2022-09-20T16:21:26.593Z,521.72
2022-09-20T16:23:56.271Z,519.90
2022-09-20T16:26:25.483Z,518.28
2022-09-20T16:28:53.528Z,522.10
2022-09-20T16:31:43.066Z,524.92
2022-09-20T16:34:14.632Z,519.10
2022-09-20T16:36:42.488Z,509.08
2022-09-20T16:39:11.134Z,508.27
2022-09-20T16:41:39.687Z,505.35
2022-09-20T16:44:07.440Z,503.55
2022-09-20T16:46:38.411Z,505.17
2022-09-20T16:49:09.599Z,499.85
2022-09-20T16:51:39.117Z,500.40
2022-09-20T16:54:15.066Z,501.85
2022-09-20T16:56:46.996Z,501.17
2022-09-20T16:59:16.427Z,499.73
2022-09-20T17:01:45.075Z,499.77
2022-09-20T17:04:14.541Z,509.65
2022-09-20T17:06:43.580Z,497.67
2022-09-20T17:09:11.360Z,493.17
2022-09-20T17:11:42.017Z,490.67
2022-09-20T17:14:09.750Z,489.48
2022-09-20T17:16:39.021Z,501.45
2022-09-20T17:19:11.637Z,499.42
2022-09-20T17:21:43.533Z,350.75
2022-09-20T17:24:10.991Z,515.05
2022-09-20T17:26:40.480Z,477.40
2022-09-20T17:29:10.475Z,514.08
2022-09-20T17:31:39.583Z,509.77
2022-09-20T17:34:10.056Z,504.33
2022-09-20T17:36:43.445Z,500.77
2022-09-20T17:39:13.122Z,503.58
2022-09-20T17:41:42.429Z,499.58
2022-09-20T17:44:10.272Z,499.58
2022-09-20T17:46:39.504Z,501.15
2022-09-20T17:49:09.648Z,503.88
2022-09-20T17:51:48.753Z,503.80
2022-09-20T17:54:17.325Z,505.85
2022-09-20T17:56:48.927Z,515.72
2022-09-20T17:59:17.574Z,510.45
2022-09-20T18:01:46.907Z,509.80
2022-09-20T18:04:14.424Z,506.60
2022-09-20T18:06:47.015Z,507.98
2022-09-20T18:09:16.849Z,512.90
2022-09-20T18:11:48.834Z,515.63
2022-09-20T18:14:23.360Z,512.97
2022-09-20T18:17:01.158Z,510.92
2022-09-20T18:19:35.214Z,508.73
2022-09-20T18:22:03.384Z,504.23
2022-09-20T18:24:31.449Z,507.40
2022-09-20T18:27:00.914Z,507.80
2022-09-20T18:29:29.430Z,509.40
2022-09-20T18:31:58.005Z,504.48
2022-09-20T18:34:31.240Z,505.75
2022-09-20T18:37:01.396Z,509.00
2022-09-20T18:39:33.679Z,506.02
2022-09-20T18:42:02.743Z,506.23
2022-09-20T18:44:34.407Z,510.50
2022-09-20T18:47:03.499Z,505.02
2022-09-20T18:49:31.533Z,511.60
2022-09-20T18:51:58.935Z,511.02
2022-09-20T18:54:27.178Z,506.10
2022-09-20T18:56:54.982Z,507.63
2022-09-20T18:59:27.096Z,504.38
2022-09-20T19:02:19.973Z,526.28
2022-09-20T19:04:59.279Z,523.97
2022-09-20T19:07:52.493Z,530.88
2022-09-20T19:10:38.003Z,519.60
2022-09-20T19:13:17.635Z,512.33
2022-09-20T19:15:50.947Z,510.90
2022-09-20T19:18:24.318Z,512.00
2022-09-20T19:21:28.343Z,513.60
2022-09-20T19:24:04.777Z,518.95
2022-09-20T19:26:38.185Z,516.05
2022-09-20T19:29:19.881Z,524.67
2022-09-20T19:31:53.683Z,520.08
2022-09-20T19:34:24.126Z,436.10
2022-09-20T19:37:18.847Z,452.33
2022-09-20T19:39:55.488Z,449.23
2022-09-20T19:42:40.993Z,449.63
2022-09-20T19:45:24.583Z,451.95
2022-09-20T19:48:33.926Z,458.95
2022-09-20T19:51:05.462Z,437.88
2022-09-20T19:53:33.342Z,316.15
2022-09-20T19:56:18.347Z,465.98
2022-09-20T19:58:46.752Z,469.35
2022-09-20T20:01:14.487Z,471.15
2022-09-20T20:03:44.081Z,467.55
2022-09-20T20:06:42.893Z,463.48
2022-09-20T20:09:34.004Z,465.52
2022-09-20T20:12:16.753Z,472.50
2022-09-20T20:14:46.912Z,333.50
2022-09-20T20:17:56.239Z,475.73
2022-09-20T20:20:37.730Z,471.38
2022-09-20T20:23:19.359Z,470.15
2022-09-20T20:26:16.183Z,474.77
2022-09-20T20:28:44.147Z,474.30
2022-09-20T20:31:12.554Z,477.15
2022-09-20T20:33:41.101Z,475.73
2022-09-20T20:36:12.186Z,478.13
2022-09-20T20:38:41.216Z,474.25
2022-09-20T20:41:14.552Z,480.15
2022-09-20T20:46:14.364Z,479.10
2022-09-20T20:48:42.207Z,481.50
2022-09-20T20:51:15.184Z,482.27
2022-09-20T20:53:48.825Z,491.73
2022-09-20T20:56:18.822Z,486.45
2022-09-20T20:58:47.828Z,489.60
2022-09-20T21:01:18.271Z,491.90
2022-09-20T21:03:53.626Z,494.88
2022-09-20T21:06:24.525Z,493.63
2022-09-20T21:08:52.296Z,496.30
2022-09-20T21:11:25.202Z,493.83
2022-09-20T21:13:54.203Z,506.10
2022-09-20T21:16:24.152Z,496.40
2022-09-20T21:18:51.893Z,496.77
2022-09-20T21:21:22.057Z,500.33
2022-09-20T21:23:54.767Z,497.38
2022-09-20T21:26:23.812Z,329.50
2022-09-20T21:28:53.694Z,494.45
2022-09-20T21:31:22.775Z,461.42
2022-09-20T21:33:50.413Z,436.42
2022-09-20T21:36:23.376Z,438.98
2022-09-20T21:38:51.437Z,300.05
2022-09-20T21:41:23.929Z,444.33
2022-09-20T21:43:56.232Z,449.40
2022-09-20T21:46:29.375Z,461.00
2022-09-20T21:48:59.776Z,447.83
2022-09-20T21:51:31.301Z,441.20
2022-09-20T21:54:04.345Z,350.38
2022-09-20T21:56:36.656Z,311.58
2022-09-20T21:59:06.336Z,429.38
2022-09-20T22:01:39.490Z,450.65
2022-09-20T22:04:11.896Z,445.25
2022-09-20T22:06:41.446Z,422.65
2022-09-20T22:09:11.343Z,456.10
2022-09-20T22:11:44.824Z,420.60
2022-09-20T22:16:43.271Z,432.17
2022-09-20T22:19:12.949Z,437.42
2022-09-20T22:21:42.904Z,438.80
2022-09-20T22:24:12.109Z,446.30
2022-09-20T22:26:45.900Z,435.40
2022-09-20T22:29:13.967Z,443.73
2022-09-20T22:31:45.675Z,446.23
2022-09-20T22:34:21.654Z,458.58
2022-09-20T22:36:49.329Z,452.67
2022-09-20T22:39:17.341Z,451.58
2022-09-20T22:41:48.200Z,451.40
2022-09-20T22:44:16.054Z,444.83
2022-09-20T22:46:43.569Z,454.48
2022-09-20T22:49:10.963Z,497.60
2022-09-20T22:51:38.630Z,494.00
2022-09-20T22:54:09.812Z,492.50
2022-09-20T22:56:38.726Z,494.90
2022-09-20T22:59:11.156Z,494.25
2022-09-20T23:01:43.621Z,345.33
2022-09-20T23:04:23.531Z,492.23
2022-09-20T23:06:55.156Z,491.92
2022-09-20T23:09:25.009Z,492.38
2022-09-20T23:11:52.323Z,492.73
2022-09-20T23:14:21.444Z,499.02
2022-09-20T23:16:49.454Z,499.55
2022-09-20T23:19:18.165Z,493.80
2022-09-20T23:21:45.764Z,495.10
2022-09-20T23:24:14.601Z,496.27
2022-09-20T23:26:42.880Z,497.00
2022-09-20T23:29:15.451Z,494.88
2022-09-20T23:31:46.105Z,356.13
2022-09-20T23:34:14.725Z,497.52
2022-09-20T23:36:42.713Z,496.50
2022-09-20T23:39:11.815Z,497.52
2022-09-20T23:41:39.591Z,492.40
2022-09-20T23:44:09.929Z,492.70
2022-09-20T23:46:38.619Z,492.80
2022-09-20T23:49:06.982Z,490.42
2022-09-20T23:51:35.603Z,493.38
2022-09-20T23:54:03.845Z,489.35
2022-09-20T23:56:32.153Z,487.95
2022-09-20T23:58:59.566Z,440.17
